createdAt,value
2024-02-17T00:02:01.413Z,23.45
2024-02-17T00:04:34.285Z,25.67
2024-02-17T00:07:07.247Z,24.95
2024-02-17T00:09:40.377Z,24.30
2024-02-17T00:12:14.603Z,22.92
2024-02-17T00:14:47.446Z,22.90
2024-02-17T00:17:20.228Z,24.10
2024-02-17T00:19:53.180Z,24.95
2024-02-17T00:22:26.288Z,23.25
2024-02-17T00:24:59.156Z,24.85
2024-02-17T00:27:33.312Z,24.77
2024-02-17T00:30:06.840Z,26.05
2024-02-17T00:32:39.695Z,24.70
2024-02-17T00:35:12.723Z,25.13
2024-02-17T00:37:45.483Z,26.40
2024-02-17T00:40:19.269Z,25.67
2024-02-17T00:42:53.735Z,25.00
2024-02-17T00:45:26.893Z,25.40
2024-02-17T00:48:00.024Z,25.30
2024-02-17T00:50:32.964Z,25.67
2024-02-17T00:53:06.024Z,24.23
2024-02-17T00:55:38.804Z,25.42
2024-02-17T00:58:12.941Z,24.92
2024-02-17T01:00:45.824Z,25.70
2024-02-17T01:03:18.637Z,27.10
2024-02-17T01:05:51.496Z,25.77
2024-02-17T01:08:24.645Z,24.48
2024-02-17T01:10:57.557Z,24.83
2024-02-17T01:13:31.786Z,24.13
2024-02-17T01:16:04.624Z,26.07
2024-02-17T01:18:37.560Z,25.63
2024-02-17T01:21:10.488Z,24.85
2024-02-17T01:23:43.416Z,25.92
2024-02-17T01:26:16.255Z,24.63
2024-02-17T01:28:50.487Z,25.00
2024-02-17T01:31:23.451Z,25.52
2024-02-17T01:33:56.334Z,25.65
2024-02-17T01:36:29.452Z,23.13
2024-02-17T01:39:02.450Z,25.25
2024-02-17T01:41:35.249Z,24.20
2024-02-17T01:44:09.503Z,24.63
2024-02-17T01:46:42.700Z,23.95
2024-02-17T01:49:16.539Z,25.70
2024-02-17T01:51:49.759Z,24.00
2024-02-17T01:54:22.812Z,25.08
2024-02-17T01:56:55.835Z,23.00
2024-02-17T01:59:30.489Z,23.67
2024-02-17T02:02:03.632Z,23.23
2024-02-17T02:04:36.601Z,24.65
2024-02-17T02:07:09.451Z,23.77
2024-02-17T02:09:42.297Z,23.67
2024-02-17T02:12:15.218Z,23.40
2024-02-17T02:17:48.466Z,24.08
2024-02-17T02:20:22.639Z,24.25
2024-02-17T02:22:55.666Z,23.53
2024-02-17T02:25:28.713Z,24.33
2024-02-17T02:28:03.223Z,23.60
2024-02-17T02:30:36.078Z,23.95
2024-02-17T02:33:09.043Z,24.67
2024-02-17T02:35:41.904Z,25.13
2024-02-17T02:38:14.641Z,24.48
2024-02-17T02:40:47.390Z,24.40
2024-02-17T02:43:21.565Z,25.08
2024-02-17T02:45:54.336Z,23.40
2024-02-17T02:48:52.349Z,23.75
2024-02-17T02:51:25.256Z,23.75
2024-02-17T02:53:58.013Z,23.80
2024-02-17T02:56:30.998Z,23.58
2024-02-17T02:59:05.085Z,24.08
2024-02-17T03:01:37.869Z,23.70
2024-02-17T03:04:10.758Z,25.58
2024-02-17T03:06:43.577Z,24.60
2024-02-17T03:09:16.453Z,25.75
2024-02-17T03:11:49.852Z,23.70
2024-02-17T03:14:23.919Z,25.30
2024-02-17T03:16:56.667Z,25.97
2024-02-17T03:19:29.515Z,24.25
2024-02-17T03:22:02.384Z,25.35
2024-02-17T03:24:35.281Z,24.60
2024-02-17T03:27:08.149Z,26.27
2024-02-17T03:29:42.197Z,23.50
2024-02-17T03:32:14.925Z,26.03
2024-02-17T03:34:47.829Z,25.05
2024-02-17T03:37:22.469Z,27.40
2024-02-17T03:39:55.367Z,25.13
2024-02-17T03:42:28.173Z,25.92
2024-02-17T03:45:02.277Z,26.10
2024-02-17T03:47:35.043Z,26.43
2024-02-17T03:50:08.492Z,25.73
2024-02-17T03:52:41.295Z,28.25
2024-02-17T03:55:14.043Z,27.13
2024-02-17T03:57:46.976Z,28.63
2024-02-17T04:00:21.290Z,27.15
2024-02-17T04:02:54.044Z,29.02
2024-02-17T04:05:26.834Z,27.75
2024-02-17T04:07:59.763Z,26.65
2024-02-17T04:10:32.898Z,28.50
2024-02-17T04:13:05.870Z,29.60
2024-02-17T04:15:40.903Z,29.38
2024-02-17T04:20:47.758Z,26.98
2024-02-17T04:23:20.607Z,30.10
2024-02-17T04:25:53.348Z,28.55
2024-02-17T04:28:26.120Z,27.67
2024-02-17T04:31:00.572Z,29.85
2024-02-17T04:33:33.437Z,30.13
2024-02-17T04:36:06.875Z,30.67
2024-02-17T04:38:40.366Z,30.75
2024-02-17T04:41:13.140Z,29.30
2024-02-17T04:43:46.603Z,29.17
2024-02-17T04:46:20.772Z,30.70
2024-02-17T04:48:53.759Z,30.77
2024-02-17T04:51:26.613Z,29.55
2024-02-17T04:53:59.361Z,30.40
2024-02-17T04:56:32.056Z,31.90
2024-02-17T04:59:05.068Z,32.00
2024-02-17T05:01:39.157Z,30.73
2024-02-17T05:04:11.983Z,31.03
2024-02-17T05:06:48.118Z,31.30
2024-02-17T05:09:20.922Z,30.42
2024-02-17T05:11:56.557Z,33.05
2024-02-17T05:14:29.300Z,32.17
2024-02-17T05:17:03.466Z,31.48
2024-02-17T05:19:36.942Z,32.47
2024-02-17T05:22:10.739Z,33.63
2024-02-17T05:24:46.032Z,31.27
2024-02-17T05:27:19.077Z,32.90
2024-02-17T05:29:51.866Z,32.78
2024-02-17T05:32:26.984Z,34.33
2024-02-17T05:35:00.342Z,31.33
2024-02-17T05:37:33.265Z,33.50
2024-02-17T05:40:08.066Z,32.65
2024-02-17T05:42:41.101Z,33.75
2024-02-17T05:45:14.265Z,33.40
2024-02-17T05:47:49.491Z,33.13
2024-02-17T05:50:22.489Z,33.08
2024-02-17T05:52:55.258Z,33.95
2024-02-17T05:55:28.375Z,34.53
2024-02-17T05:58:01.092Z,32.35
2024-02-17T06:00:33.913Z,33.13
2024-02-17T06:03:09.134Z,33.42
2024-02-17T06:05:41.976Z,31.55
2024-02-17T06:08:15.120Z,33.08
2024-02-17T06:10:47.994Z,32.65
2024-02-17T06:13:21.304Z,32.65
2024-02-17T06:15:54.454Z,32.10
2024-02-17T06:18:46.476Z,31.73
2024-02-17T06:21:23.249Z,33.15
2024-02-17T06:23:56.865Z,34.42
2024-02-17T06:26:30.320Z,31.88
2024-02-17T06:29:04.446Z,33.67
2024-02-17T06:31:39.531Z,32.50
2024-02-17T06:34:14.312Z,33.28
2024-02-17T06:36:47.204Z,35.90
2024-02-17T06:39:20.077Z,33.35
2024-02-17T06:41:52.879Z,34.72
2024-02-17T06:44:26.987Z,34.63
2024-02-17T06:46:59.861Z,33.53
2024-02-17T06:49:34.164Z,34.63
2024-02-17T06:52:07.224Z,32.92
2024-02-17T06:54:40.310Z,32.72
2024-02-17T06:57:13.140Z,33.03
2024-02-17T06:59:45.873Z,33.33
2024-02-17T07:02:24.718Z,33.75
2024-02-17T07:04:59.322Z,33.60
2024-02-17T07:07:32.152Z,34.25
2024-02-17T07:10:05.483Z,33.47
2024-02-17T07:12:39.081Z,34.90
2024-02-17T07:15:12.187Z,33.85
2024-02-17T07:17:44.985Z,33.33
2024-02-17T07:20:19.270Z,33.25
2024-02-17T07:22:52.038Z,34.25
2024-02-17T07:25:25.373Z,34.20
2024-02-17T07:27:59.024Z,32.13
2024-02-17T07:30:32.422Z,33.45
2024-02-17T07:33:05.704Z,33.95
2024-02-17T07:35:43.220Z,34.22
2024-02-17T07:38:15.999Z,33.42
2024-02-17T07:40:49.866Z,34.33
2024-02-17T07:45:56.516Z,33.67
2024-02-17T07:48:29.541Z,34.95
2024-02-17T07:51:03.736Z,33.95
2024-02-17T07:53:36.610Z,36.45
2024-02-17T07:56:10.523Z,34.83
2024-02-17T07:58:43.269Z,35.67
2024-02-17T08:01:16.164Z,34.50
2024-02-17T08:03:49.087Z,33.03
2024-02-17T08:06:23.685Z,34.65
2024-02-17T08:08:56.477Z,36.08
2024-02-17T08:11:29.276Z,34.10
2024-02-17T08:14:02.361Z,34.45
2024-02-17T08:16:35.273Z,33.00
2024-02-17T08:19:08.279Z,34.65
2024-02-17T08:21:42.500Z,33.88
2024-02-17T08:24:15.287Z,34.05
2024-02-17T08:26:47.965Z,34.95
2024-02-17T08:29:21.606Z,34.08
2024-02-17T08:31:54.418Z,33.42
2024-02-17T08:34:27.239Z,32.38
2024-02-17T08:37:01.438Z,32.83
2024-02-17T08:39:34.248Z,33.97
2024-02-17T08:42:07.556Z,33.70
2024-02-17T08:44:40.299Z,33.28
2024-02-17T08:47:13.075Z,29.88
2024-02-17T08:49:45.903Z,32.38
2024-02-17T08:52:20.515Z,32.50
2024-02-17T08:54:53.528Z,32.22
2024-02-17T08:57:26.409Z,118.32
2024-02-17T09:00:00.967Z,32.03
2024-02-17T09:02:33.885Z,33.10
2024-02-17T09:05:07.378Z,32.00
2024-02-17T09:07:41.781Z,33.17
2024-02-17T09:10:16.752Z,40.63
2024-02-17T09:12:50.851Z,32.33
2024-02-17T09:15:23.723Z,32.17
2024-02-17T09:17:55.545Z,35.97
2024-02-17T09:20:28.393Z,31.95
2024-02-17T09:23:04.060Z,32.65
2024-02-17T09:25:36.812Z,32.92
2024-02-17T09:28:09.543Z,31.92
2024-02-17T09:30:42.315Z,32.45
2024-02-17T09:33:15.171Z,33.78
2024-02-17T09:35:48.032Z,33.97
2024-02-17T09:38:22.121Z,33.42
2024-02-17T09:40:55.538Z,33.60
2024-02-17T09:43:28.341Z,32.95
2024-02-17T09:46:01.185Z,32.70
2024-02-17T09:48:34.192Z,32.97
2024-02-17T09:51:07.919Z,33.97
2024-02-17T09:53:42.442Z,32.58
2024-02-17T09:56:15.530Z,32.63
2024-02-17T09:58:48.452Z,33.53
2024-02-17T10:01:21.914Z,32.95
2024-02-17T10:03:55.132Z,34.20
2024-02-17T10:06:28.258Z,32.47
2024-02-17T10:09:03.269Z,31.95
2024-02-17T10:14:08.482Z,31.23
2024-02-17T10:16:41.667Z,30.85
2024-02-17T10:19:16.120Z,34.33
2024-02-17T10:21:49.833Z,32.65
2024-02-17T10:24:24.012Z,31.90
2024-02-17T10:26:56.930Z,32.80
2024-02-17T10:29:29.764Z,31.90
2024-02-17T10:32:02.927Z,30.48
2024-02-17T10:34:36.751Z,31.00
2024-02-17T10:37:09.909Z,30.98
2024-02-17T10:39:45.083Z,30.63
2024-02-17T10:42:20.025Z,31.73
2024-02-17T10:47:27.617Z,30.25
2024-02-17T10:52:43.177Z,30.23
2024-02-17T10:55:17.726Z,30.20
2024-02-17T10:57:53.936Z,30.42
2024-02-17T11:00:27.134Z,28.58
2024-02-17T11:03:06.902Z,28.75
2024-02-17T11:05:41.327Z,29.55
2024-02-17T11:08:14.231Z,27.95
2024-02-17T11:10:48.323Z,28.60
2024-02-17T11:13:25.204Z,27.00
2024-02-17T11:16:02.327Z,29.10
2024-02-17T11:18:37.969Z,27.63
2024-02-17T11:21:12.349Z,27.05
2024-02-17T11:23:45.192Z,27.75
2024-02-17T11:26:29.070Z,25.63
2024-02-17T11:29:09.591Z,25.20
2024-02-17T11:31:44.502Z,26.35
2024-02-17T11:34:17.448Z,29.65
2024-02-17T11:36:50.682Z,29.63
2024-02-17T11:39:23.865Z,30.20
2024-02-17T11:41:59.573Z,30.70
2024-02-17T11:44:33.785Z,28.10
2024-02-17T11:47:06.630Z,30.25
2024-02-17T11:49:42.326Z,30.33
2024-02-17T11:52:15.770Z,28.30
2024-02-17T11:54:52.994Z,27.77
2024-02-17T11:57:29.782Z,28.27
2024-02-17T12:00:02.708Z,29.30
2024-02-17T12:02:45.090Z,27.02
2024-02-17T12:07:51.212Z,25.48
2024-02-17T12:10:25.336Z,26.75
2024-02-17T12:12:59.472Z,25.25
2024-02-17T12:15:32.332Z,25.17
2024-02-17T12:18:05.886Z,26.05
2024-02-17T12:20:38.683Z,25.98
2024-02-17T12:23:11.658Z,24.67
2024-02-17T12:25:44.398Z,24.17
2024-02-17T12:28:18.778Z,24.80
2024-02-17T12:30:51.998Z,24.02
2024-02-17T12:33:25.551Z,23.55
2024-02-17T12:36:00.454Z,20.90
2024-02-17T12:41:08.226Z,21.20
2024-02-17T12:43:48.338Z,23.00
2024-02-17T12:46:27.715Z,20.77
2024-02-17T12:49:01.103Z,19.77
2024-02-17T12:51:36.071Z,21.45
2024-02-17T12:54:09.989Z,22.15
2024-02-17T12:56:42.916Z,20.57
2024-02-17T12:59:17.387Z,20.63
2024-02-17T13:01:50.187Z,19.10
2024-02-17T13:04:23.138Z,19.90
2024-02-17T13:06:56.132Z,19.55
2024-02-17T13:09:29.016Z,19.50
2024-02-17T13:12:01.846Z,19.98
2024-02-17T13:14:36.139Z,20.60
2024-02-17T13:17:09.805Z,19.63
2024-02-17T13:19:42.654Z,21.45
2024-02-17T13:22:15.841Z,19.52
2024-02-17T13:24:48.841Z,18.50
2024-02-17T13:27:21.651Z,19.92
2024-02-17T13:29:55.738Z,19.30
2024-02-17T13:32:28.440Z,21.05
2024-02-17T13:35:01.350Z,20.98
2024-02-17T13:37:34.273Z,21.27
2024-02-17T13:40:09.083Z,25.17
2024-02-17T13:42:42.485Z,26.67
2024-02-17T13:45:17.136Z,25.98
2024-02-17T13:47:49.973Z,26.73
2024-02-17T13:50:22.709Z,26.50
2024-02-17T13:52:55.481Z,26.52
2024-02-17T13:55:33.529Z,28.45
2024-02-17T13:58:08.520Z,27.92
2024-02-17T14:00:43.365Z,26.13
2024-02-17T14:03:16.854Z,26.10
2024-02-17T14:05:49.761Z,25.83
2024-02-17T14:08:22.837Z,24.38
2024-02-17T14:10:55.788Z,24.80
2024-02-17T14:13:28.480Z,25.33
2024-02-17T14:16:02.701Z,23.98
2024-02-17T14:18:35.580Z,24.73
2024-02-17T14:21:10.838Z,24.83
2024-02-17T14:23:43.816Z,25.58
2024-02-17T14:26:16.629Z,24.33
2024-02-17T14:28:50.493Z,26.05
2024-02-17T14:31:25.926Z,26.08
2024-02-17T14:33:58.783Z,25.58
2024-02-17T14:36:31.583Z,24.65
2024-02-17T14:39:04.406Z,23.65
2024-02-17T14:41:37.205Z,24.30
2024-02-17T14:44:09.994Z,23.73
2024-02-17T14:46:44.124Z,23.95
2024-02-17T14:49:17.951Z,23.70
2024-02-17T14:51:51.044Z,23.98
2024-02-17T14:54:24.629Z,24.13
2024-02-17T14:56:57.383Z,23.40
2024-02-17T14:59:30.152Z,24.33
2024-02-17T15:02:04.343Z,24.42
2024-02-17T15:04:37.121Z,24.52
2024-02-17T15:07:10.460Z,24.20
2024-02-17T15:09:43.335Z,24.75
2024-02-17T15:12:16.468Z,24.70
2024-02-17T15:14:49.218Z,24.10
2024-02-17T15:17:30.145Z,25.90
2024-02-17T15:20:03.218Z,25.85
2024-02-17T15:22:36.741Z,25.27
2024-02-17T15:25:10.019Z,23.73
2024-02-17T15:27:42.907Z,25.00
2024-02-17T15:30:15.960Z,25.27
2024-02-17T15:32:50.091Z,27.10
2024-02-17T15:35:22.870Z,26.50
2024-02-17T15:37:55.860Z,25.40
2024-02-17T15:40:28.580Z,27.95
2024-02-17T15:43:01.617Z,27.65
2024-02-17T15:45:34.607Z,26.42
2024-02-17T15:48:09.427Z,26.75
2024-02-17T15:53:15.129Z,27.67
2024-02-17T15:55:47.839Z,27.65
2024-02-17T15:58:22.453Z,25.67
2024-02-17T16:00:57.863Z,27.00
2024-02-17T16:03:33.492Z,27.15
2024-02-17T16:06:07.694Z,26.95
2024-02-17T16:08:41.256Z,26.85
2024-02-17T16:11:14.172Z,26.67
2024-02-17T16:13:47.249Z,27.38
2024-02-17T16:16:20.558Z,26.02
2024-02-17T16:18:56.589Z,26.90
2024-02-17T16:21:29.560Z,28.23
2024-02-17T16:24:02.429Z,24.92
2024-02-17T16:26:37.655Z,27.73
2024-02-17T16:29:10.375Z,27.30
2024-02-17T16:31:43.361Z,26.13
2024-02-17T16:34:17.632Z,25.88
2024-02-17T16:36:50.555Z,28.42
2024-02-17T16:39:23.672Z,26.60
2024-02-17T16:41:56.413Z,26.65
2024-02-17T16:44:29.164Z,26.27
2024-02-17T16:47:03.716Z,26.52
2024-02-17T16:49:38.380Z,26.38
2024-02-17T16:52:11.286Z,26.80
2024-02-17T16:54:44.115Z,25.98
2024-02-17T16:57:17.105Z,28.00
2024-02-17T16:59:49.912Z,26.25
2024-02-17T17:02:22.708Z,27.80
2024-02-17T17:04:59.105Z,27.05
2024-02-17T17:07:31.915Z,27.58
2024-02-17T17:10:04.827Z,26.52
2024-02-17T17:12:38.076Z,28.08
2024-02-17T17:15:11.228Z,26.85
2024-02-17T17:17:44.460Z,26.85
2024-02-17T17:20:19.581Z,26.92
2024-02-17T17:22:52.469Z,25.73
2024-02-17T17:25:25.371Z,25.70
2024-02-17T17:27:58.301Z,25.98
2024-02-17T17:30:31.173Z,28.02
2024-02-17T17:33:04.195Z,27.80
2024-02-17T17:35:38.411Z,27.20
2024-02-17T17:38:11.103Z,26.93
2024-02-17T17:40:44.035Z,27.83
2024-02-17T17:43:16.802Z,27.45
2024-02-17T17:45:49.979Z,28.33
2024-02-17T17:48:22.882Z,30.13
2024-02-17T17:50:57.035Z,29.10
2024-02-17T17:53:29.816Z,30.67
2024-02-17T17:56:03.128Z,27.40
2024-02-17T17:58:36.399Z,29.33
2024-02-17T18:01:10.323Z,28.55
2024-02-17T18:03:43.231Z,27.63
2024-02-17T18:06:17.928Z,29.17
2024-02-17T18:08:51.993Z,27.23
2024-02-17T18:11:24.826Z,28.53
2024-02-17T18:13:57.630Z,28.80
2024-02-17T18:16:30.312Z,26.90
2024-02-17T18:19:03.305Z,28.73
2024-02-17T18:21:37.566Z,28.30
2024-02-17T18:24:10.284Z,27.92
2024-02-17T18:26:42.992Z,28.42
2024-02-17T18:29:15.723Z,29.42
2024-02-17T18:31:48.474Z,28.80
2024-02-17T18:34:21.241Z,27.08
2024-02-17T18:36:57.209Z,28.48
2024-02-17T18:39:30.079Z,29.88
2024-02-17T18:42:02.876Z,30.02
2024-02-17T18:44:36.194Z,28.42
2024-02-17T18:47:09.018Z,28.27
2024-02-17T18:49:43.853Z,29.92
2024-02-17T18:52:18.075Z,29.08
2024-02-17T18:54:50.897Z,29.05
2024-02-17T18:57:23.731Z,28.52
2024-02-17T18:59:56.698Z,28.25
2024-02-17T19:02:29.511Z,27.45
2024-02-17T19:05:02.237Z,27.92
2024-02-17T19:07:36.360Z,29.25
2024-02-17T19:10:09.473Z,26.55
2024-02-17T19:12:42.257Z,26.10
2024-02-17T19:15:15.149Z,27.23
2024-02-17T19:17:47.959Z,26.75
2024-02-17T19:20:20.961Z,27.15
2024-02-17T19:22:55.267Z,27.98
2024-02-17T19:25:28.030Z,26.10
2024-02-17T19:28:01.323Z,26.75
2024-02-17T19:30:34.081Z,26.10
2024-02-17T19:33:07.017Z,26.73
2024-02-17T19:35:39.792Z,30.10
2024-02-17T19:38:13.931Z,28.58
2024-02-17T19:40:47.097Z,29.30
2024-02-17T19:43:19.891Z,51.30
2024-02-17T19:45:52.718Z,63.00
2024-02-17T19:48:25.602Z,64.55
2024-02-17T19:50:58.415Z,64.03
2024-02-17T19:53:32.746Z,58.15
2024-02-17T19:56:05.830Z,51.47
2024-02-17T19:58:38.678Z,44.53
2024-02-17T20:01:11.848Z,41.60
2024-02-17T20:03:44.854Z,44.72
2024-02-17T20:06:17.756Z,42.38
2024-02-17T20:08:54.733Z,30.67
2024-02-17T20:11:27.868Z,30.08
2024-02-17T20:14:01.502Z,33.35
2024-02-17T20:16:34.265Z,31.73
2024-02-17T20:19:07.418Z,30.75
2024-02-17T20:21:41.804Z,33.67
2024-02-17T20:24:16.163Z,31.77
2024-02-17T20:26:48.922Z,34.72
2024-02-17T20:29:21.720Z,35.40
2024-02-17T20:31:54.806Z,33.83
2024-02-17T20:34:27.729Z,30.98
2024-02-17T20:37:00.704Z,29.38
2024-02-17T20:39:35.006Z,31.58
2024-02-17T20:42:09.182Z,29.85
2024-02-17T20:44:41.981Z,28.15
2024-02-17T20:47:14.970Z,29.95
2024-02-17T20:49:48.160Z,27.98
2024-02-17T20:52:21.152Z,28.02
2024-02-17T20:54:55.917Z,29.65
2024-02-17T20:57:28.886Z,33.78
2024-02-17T21:00:01.643Z,34.40
2024-02-17T21:02:38.052Z,31.65
2024-02-17T21:05:11.451Z,31.75
2024-02-17T21:07:44.659Z,31.08
2024-02-17T21:10:19.024Z,31.80
2024-02-17T21:12:51.921Z,29.90
2024-02-17T21:15:24.916Z,30.38
2024-02-17T21:17:57.725Z,29.17
2024-02-17T21:20:30.444Z,28.00
2024-02-17T21:23:03.168Z,27.33
2024-02-17T21:25:37.366Z,27.13
2024-02-17T21:28:10.169Z,30.63
2024-02-17T21:30:42.982Z,39.05
2024-02-17T21:33:15.910Z,47.20
2024-02-17T21:35:49.303Z,45.25
2024-02-17T21:38:22.226Z,39.53
2024-02-17T21:40:56.304Z,28.70
2024-02-17T21:43:29.373Z,32.10
2024-02-17T21:46:02.162Z,30.20
2024-02-17T21:48:35.094Z,31.77
2024-02-17T21:51:14.980Z,33.25
2024-02-17T21:53:47.724Z,39.40
2024-02-17T21:56:21.922Z,33.15
2024-02-17T21:58:54.746Z,28.43
2024-02-17T22:01:27.611Z,28.83
2024-02-17T22:04:00.843Z,25.95
2024-02-17T22:06:34.382Z,26.13
2024-02-17T22:09:07.115Z,46.47
2024-02-17T22:11:41.224Z,42.35
2024-02-17T22:14:13.964Z,31.70
2024-02-17T22:16:46.677Z,29.33
2024-02-17T22:19:19.908Z,32.15
2024-02-17T22:21:53.391Z,29.10
2024-02-17T22:24:26.131Z,28.77
2024-02-17T22:27:00.197Z,29.10
2024-02-17T22:29:34.016Z,31.13
2024-02-17T22:32:06.896Z,30.95
2024-02-17T22:34:39.781Z,29.98
2024-02-17T22:37:12.765Z,29.60
2024-02-17T22:39:45.714Z,28.77
2024-02-17T22:42:22.941Z,26.80
2024-02-17T22:44:55.871Z,30.30
2024-02-17T22:47:28.839Z,28.38
2024-02-17T22:50:01.802Z,30.50
2024-02-17T22:52:34.696Z,30.98
2024-02-17T22:55:08.021Z,28.80
2024-02-17T22:57:42.254Z,33.47
2024-02-17T23:00:26.272Z,29.13
2024-02-17T23:02:59.048Z,31.08
2024-02-17T23:05:31.836Z,36.85
2024-02-17T23:08:04.753Z,43.88
2024-02-17T23:10:38.206Z,46.25
2024-02-17T23:13:12.422Z,38.03
2024-02-17T23:15:45.462Z,39.53
2024-02-17T23:18:18.553Z,38.70
2024-02-17T23:20:51.430Z,37.83
2024-02-17T23:23:26.044Z,35.75
2024-02-17T23:25:58.832Z,33.10
2024-02-17T23:28:33.219Z,30.85
2024-02-17T23:31:06.056Z,25.95
2024-02-17T23:33:40.562Z,26.55
2024-02-17T23:36:14.566Z,26.10
2024-02-17T23:38:47.493Z,24.27
2024-02-17T23:41:20.211Z,23.60
2024-02-17T23:43:54.412Z,25.10
2024-02-17T23:46:27.161Z,23.83
2024-02-17T23:49:00.162Z,24.45
2024-02-17T23:51:33.038Z,23.23
2024-02-17T23:54:05.906Z,22.67
2024-02-17T23:56:41.448Z,22.38
2024-02-17T23:59:16.593Z,24.02
